Ardsley On Hudson, New York
Current Conditions -  °F | °C
As of 9:56 PM on Wednesday 26 Nov 2014 (Local Time) from KHPN Reporting Station
Light Snow Light Snow  
Wind Chill: 21°   Ceiling: 1400
Heat Index: 33°   Visibility: 2mi
Dew Point: 30°   Wind: 21mph
Humidity: 89%   Direction: 330°NNW
Pressure: 29.77"   Gusts: 32mph
Location:  41.02°N, 73.87°W
Report Text: KHPN 270256Z 33018G28KT 2SM -SN BR OVC014 01/M01 A2977 RMK AO2 PK WND 33028/0249 SLP087 P0000 60002 T00061011 51003
Loading
Personal Weather Stations






























Interactive Weather Map New forecast layout! Learn more

10-Day Weather Forecast

Advertisements
Track Severe Weather on mobile